createdAt,value
2018-01-21T00:01:09.835Z,33.57
2018-01-21T00:03:38.120Z,39.73
2018-01-21T00:06:06.399Z,35.80
2018-01-21T00:08:34.684Z,38.13
2018-01-21T00:11:02.962Z,38.90
2018-01-21T00:13:32.989Z,40.37
2018-01-21T00:16:01.263Z,42.03
2018-01-21T00:18:29.529Z,35.37
2018-01-21T00:20:57.816Z,53.10
2018-01-21T00:23:26.093Z,38.20
2018-01-21T00:25:54.353Z,46.23
2018-01-21T00:28:22.644Z,39.10
2018-01-21T00:30:50.885Z,45.47
2018-01-21T00:33:19.923Z,42.77
2018-01-21T00:35:48.187Z,49.27
2018-01-21T00:38:16.446Z,53.23
2018-01-21T00:40:44.757Z,54.80
2018-01-21T00:43:13.243Z,42.50
2018-01-21T00:45:41.489Z,48.80
2018-01-21T00:48:09.741Z,45.97
2018-01-21T00:50:38.783Z,52.83
2018-01-21T00:53:07.043Z,58.50
2018-01-21T00:55:35.315Z,55.40
2018-01-21T00:58:03.590Z,51.20
2018-01-21T01:00:31.865Z,55.40
2018-01-21T01:03:00.148Z,60.17
2018-01-21T01:05:28.410Z,67.93
2018-01-21T01:07:57.433Z,55.47
2018-01-21T01:10:25.724Z,60.70
2018-01-21T01:12:53.970Z,46.57
2018-01-21T01:15:22.245Z,51.50
2018-01-21T01:17:50.493Z,51.00
2018-01-21T01:20:19.508Z,53.73
2018-01-21T01:22:48.548Z,49.80
2018-01-21T01:25:16.825Z,53.43
2018-01-21T01:27:45.059Z,44.10
2018-01-21T01:30:13.340Z,47.80
2018-01-21T01:32:42.342Z,40.37
2018-01-21T01:35:10.625Z,46.77
2018-01-21T01:37:38.894Z,38.70
2018-01-21T01:40:07.178Z,42.40
2018-01-21T01:42:35.417Z,39.03
2018-01-21T01:45:04.496Z,43.60
2018-01-21T01:47:32.742Z,43.17
2018-01-21T01:50:00.988Z,46.40
2018-01-21T01:52:30.043Z,35.90
2018-01-21T01:54:58.290Z,39.27
2018-01-21T01:57:26.545Z,36.83
2018-01-21T01:59:54.779Z,34.63
2018-01-21T02:02:23.081Z,36.03
2018-01-21T02:04:52.077Z,33.70
2018-01-21T02:07:21.096Z,30.60
2018-01-21T02:09:49.685Z,31.00
2018-01-21T02:12:17.925Z,24.53
2018-01-21T02:14:46.945Z,33.50
2018-01-21T02:17:15.223Z,31.80
2018-01-21T02:19:43.500Z,30.10
2018-01-21T02:22:12.491Z,34.87
2018-01-21T02:24:41.590Z,34.87
2018-01-21T02:27:10.592Z,37.97
2018-01-21T02:29:39.192Z,38.70
2018-01-21T02:32:08.328Z,38.23
2018-01-21T02:34:36.590Z,44.77
2018-01-21T02:37:04.847Z,49.63
2018-01-21T02:39:33.089Z,46.37
2018-01-21T02:42:02.108Z,59.17
2018-01-21T02:44:30.349Z,66.00
2018-01-21T02:46:59.398Z,73.27
2018-01-21T02:49:27.654Z,68.07
2018-01-21T02:51:55.896Z,74.57
2018-01-21T02:54:24.942Z,70.77
2018-01-21T02:56:53.202Z,80.53
2018-01-21T02:59:21.472Z,67.93
2018-01-21T03:01:50.664Z,65.20
2018-01-21T03:04:19.696Z,72.67
2018-01-21T03:06:47.948Z,73.33
2018-01-21T03:09:16.204Z,82.30
2018-01-21T03:11:45.243Z,72.50
2018-01-21T03:14:13.494Z,75.70
2018-01-21T03:16:41.782Z,78.83
2018-01-21T03:19:10.790Z,75.97
2018-01-21T03:21:39.037Z,92.07
2018-01-21T03:24:07.270Z,84.50
2018-01-21T03:26:35.633Z,85.20
2018-01-21T03:29:03.946Z,81.63
2018-01-21T03:31:32.231Z,83.47
2018-01-21T03:34:01.262Z,93.30
2018-01-21T03:36:30.194Z,102.33
2018-01-21T03:38:58.470Z,92.63
2018-01-21T03:41:26.751Z,87.50
2018-01-21T03:43:56.508Z,82.80
2018-01-21T03:46:25.535Z,95.83
2018-01-21T03:48:53.801Z,100.07
2018-01-21T03:51:22.030Z,93.93
2018-01-21T03:53:51.054Z,86.80
2018-01-21T03:56:19.306Z,101.40
2018-01-21T03:58:48.392Z,99.60
2018-01-21T04:01:16.621Z,100.00
2018-01-21T04:03:44.889Z,95.60
2018-01-21T04:06:13.158Z,85.70
2018-01-21T04:08:41.405Z,101.43
2018-01-21T04:11:10.429Z,86.53
2018-01-21T04:13:38.686Z,86.20
2018-01-21T04:16:07.707Z,85.90
2018-01-21T04:18:35.949Z,101.90
2018-01-21T04:21:04.213Z,86.87
2018-01-21T04:23:32.493Z,76.33
2018-01-21T04:26:00.764Z,78.00
2018-01-21T04:28:29.037Z,79.13
2018-01-21T04:30:57.258Z,52.77
2018-01-21T04:33:26.258Z,61.73
2018-01-21T04:35:54.486Z,57.37
2018-01-21T04:38:22.735Z,51.53
2018-01-21T04:40:50.973Z,55.63
2018-01-21T04:43:20.260Z,49.43
2018-01-21T04:45:48.479Z,48.10
2018-01-21T04:48:16.813Z,48.80
2018-01-21T04:50:46.580Z,47.17
2018-01-21T04:53:14.808Z,50.00
2018-01-21T04:55:43.868Z,48.07
2018-01-21T04:58:12.097Z,44.30
2018-01-21T05:00:41.116Z,45.13
2018-01-21T05:03:09.379Z,51.63
2018-01-21T05:05:37.626Z,50.83
2018-01-21T05:08:06.689Z,55.50
2018-01-21T05:10:35.678Z,46.93
2018-01-21T05:13:03.948Z,52.10
2018-01-21T05:15:32.211Z,46.67
2018-01-21T05:18:00.577Z,56.33
2018-01-21T05:20:28.846Z,47.17
2018-01-21T05:22:57.837Z,42.43
2018-01-21T05:25:26.859Z,55.90
2018-01-21T05:27:55.110Z,41.73
2018-01-21T05:30:24.110Z,45.20
2018-01-21T05:32:52.805Z,54.27
2018-01-21T05:35:21.812Z,44.50
2018-01-21T05:37:50.052Z,51.67
2018-01-21T05:40:19.065Z,37.80
2018-01-21T05:42:47.322Z,43.40
2018-01-21T05:45:16.394Z,45.10
2018-01-21T05:47:44.645Z,40.47
2018-01-21T05:50:12.939Z,40.93
2018-01-21T05:52:41.207Z,53.43
2018-01-21T05:55:09.485Z,44.63
2018-01-21T05:57:37.766Z,39.13
2018-01-21T06:00:06.074Z,41.80
2018-01-21T06:02:34.336Z,35.37
2018-01-21T06:05:02.568Z,32.30
2018-01-21T06:07:30.834Z,37.97
2018-01-21T06:09:59.845Z,45.80
2018-01-21T06:12:28.110Z,32.87
2018-01-21T06:14:56.378Z,37.03
2018-01-21T06:17:25.443Z,45.97
2018-01-21T06:19:53.714Z,35.47
2018-01-21T06:22:21.987Z,33.47
2018-01-21T06:24:50.251Z,38.23
2018-01-21T06:27:18.493Z,37.97
2018-01-21T06:29:46.773Z,37.77
2018-01-21T06:32:15.768Z,34.03
2018-01-21T06:34:44.054Z,40.67
2018-01-21T06:37:12.310Z,36.47
2018-01-21T06:39:41.305Z,42.40
2018-01-21T06:42:10.384Z,41.47
2018-01-21T06:44:38.668Z,39.97
2018-01-21T06:47:06.904Z,26.23
2018-01-21T06:49:35.165Z,36.67
2018-01-21T06:52:03.500Z,37.60
2018-01-21T06:54:32.631Z,35.87
2018-01-21T06:57:00.889Z,28.87
2018-01-21T06:59:29.909Z,39.87
2018-01-21T07:01:58.178Z,34.50
2018-01-21T07:04:26.441Z,36.43
2018-01-21T07:06:54.718Z,33.37
2018-01-21T07:09:22.957Z,38.30
2018-01-21T07:11:51.213Z,33.83
2018-01-21T07:14:19.444Z,35.77
2018-01-21T07:16:47.731Z,40.43
2018-01-21T07:19:16.713Z,58.87
2018-01-21T07:21:46.009Z,65.40
2018-01-21T07:24:15.084Z,35.20
2018-01-21T07:26:43.356Z,34.53
2018-01-21T07:29:11.600Z,47.37
2018-01-21T07:31:39.864Z,32.33
2018-01-21T07:34:08.114Z,32.73
2018-01-21T07:36:37.126Z,29.50
2018-01-21T07:39:06.677Z,35.27
2018-01-21T07:41:34.946Z,36.13
2018-01-21T07:44:03.221Z,30.40
2018-01-21T07:46:31.483Z,30.47
2018-01-21T07:48:59.742Z,29.13
2018-01-21T07:51:27.981Z,29.80
2018-01-21T07:53:57.740Z,29.00
2018-01-21T07:56:26.014Z,29.43
2018-01-21T07:58:54.261Z,28.00
2018-01-21T08:01:23.271Z,32.33
2018-01-21T08:03:52.296Z,37.83
2018-01-21T08:06:20.931Z,33.63
2018-01-21T08:08:49.165Z,31.33
2018-01-21T08:11:17.756Z,30.90
2018-01-21T08:13:46.010Z,26.30
2018-01-21T08:16:14.291Z,27.60
2018-01-21T08:18:42.542Z,21.23
2018-01-21T08:21:11.582Z,25.80
2018-01-21T08:23:39.853Z,19.40
2018-01-21T08:26:08.135Z,27.37
2018-01-21T08:28:36.399Z,25.67
2018-01-21T08:31:04.650Z,25.93
2018-01-21T08:33:33.701Z,20.03
2018-01-21T08:36:07.791Z,27.33
2018-01-21T08:38:41.795Z,25.93
2018-01-21T08:41:15.861Z,25.30
2018-01-21T08:43:44.127Z,33.23
2018-01-21T08:46:12.370Z,32.33
2018-01-21T08:48:40.662Z,28.30
2018-01-21T08:51:08.935Z,27.57
2018-01-21T08:53:37.219Z,32.40
2018-01-21T08:56:05.504Z,40.53
2018-01-21T08:58:33.805Z,30.87
2018-01-21T09:01:02.094Z,31.83
2018-01-21T09:03:30.341Z,27.33
2018-01-21T09:05:58.625Z,24.10
2018-01-21T09:08:26.903Z,20.60
2018-01-21T09:10:55.172Z,39.37
2018-01-21T09:13:23.473Z,27.93
2018-01-21T09:15:51.736Z,24.77
2018-01-21T09:18:20.001Z,24.53
2018-01-21T09:20:48.282Z,32.43
2018-01-21T09:23:16.557Z,23.00
2018-01-21T09:25:45.025Z,22.33
2018-01-21T09:28:13.267Z,26.90
2018-01-21T09:30:42.293Z,18.50
2018-01-21T09:33:10.566Z,20.57
2018-01-21T09:35:38.870Z,25.70
2018-01-21T09:38:07.162Z,21.37
2018-01-21T09:40:35.654Z,21.40
2018-01-21T09:43:03.973Z,18.50
2018-01-21T09:45:32.245Z,28.87
2018-01-21T09:48:01.274Z,31.70
2018-01-21T09:50:29.536Z,17.33
2018-01-21T09:52:57.788Z,23.17
2018-01-21T09:55:26.062Z,21.27
2018-01-21T09:57:55.082Z,27.77
2018-01-21T10:00:23.326Z,29.93
2018-01-21T10:02:51.627Z,26.00
2018-01-21T10:05:19.938Z,22.83
2018-01-21T10:07:49.049Z,24.13
2018-01-21T10:10:17.286Z,18.00
2018-01-21T10:12:45.590Z,25.23
2018-01-21T10:15:13.852Z,21.33
2018-01-21T10:17:42.092Z,19.87
2018-01-21T10:20:11.155Z,50.00
2018-01-21T10:22:39.385Z,26.03
2018-01-21T10:25:07.648Z,25.90
2018-01-21T10:27:36.708Z,17.40
2018-01-21T10:30:06.498Z,43.40
2018-01-21T10:32:34.736Z,30.30
2018-01-21T10:35:03.810Z,17.53
2018-01-21T10:37:33.576Z,23.23
2018-01-21T10:40:01.946Z,26.53
2018-01-21T10:42:30.183Z,35.10
2018-01-21T10:44:58.491Z,24.23
2018-01-21T10:47:26.778Z,19.77
2018-01-21T10:49:55.064Z,22.30
2018-01-21T10:52:23.342Z,38.13
2018-01-21T10:54:51.609Z,22.87
2018-01-21T10:57:20.629Z,26.30
2018-01-21T10:59:48.903Z,23.00
2018-01-21T11:02:17.175Z,24.80
2018-01-21T11:04:45.448Z,26.07
2018-01-21T11:07:13.765Z,20.73
2018-01-21T11:09:42.026Z,33.67
2018-01-21T11:12:10.322Z,23.23
2018-01-21T11:14:38.563Z,20.43
2018-01-21T11:17:06.885Z,32.63
2018-01-21T11:19:35.998Z,18.67
2018-01-21T11:22:05.008Z,30.83
2018-01-21T11:24:33.302Z,17.30
2018-01-21T11:27:01.554Z,27.90
2018-01-21T11:29:30.577Z,23.27
2018-01-21T11:31:58.897Z,28.17
2018-01-21T11:34:27.182Z,26.07
2018-01-21T11:36:56.964Z,21.53
2018-01-21T11:39:25.213Z,29.80
2018-01-21T11:41:53.607Z,22.37
2018-01-21T11:44:21.900Z,22.33
2018-01-21T11:46:50.162Z,22.63
2018-01-21T11:49:18.445Z,29.23
2018-01-21T11:51:46.709Z,28.77
2018-01-21T11:54:14.978Z,28.83
2018-01-21T11:56:43.275Z,26.00
2018-01-21T11:59:11.692Z,29.57
2018-01-21T12:01:41.303Z,32.67
2018-01-21T12:04:10.338Z,26.67
2018-01-21T12:06:38.631Z,23.20
2018-01-21T12:09:06.909Z,24.30
2018-01-21T12:11:35.231Z,25.77
2018-01-21T12:14:03.515Z,20.40
2018-01-21T12:16:32.709Z,16.40
2018-01-21T12:19:00.972Z,18.00
2018-01-21T12:21:29.264Z,21.20
2018-01-21T12:23:58.499Z,17.63
2018-01-21T12:26:26.835Z,27.00
2018-01-21T12:28:55.111Z,28.90
2018-01-21T12:31:23.407Z,22.83
2018-01-21T12:33:52.450Z,32.63
2018-01-21T12:36:20.729Z,31.37
2018-01-21T12:38:48.986Z,24.13
2018-01-21T12:41:17.246Z,33.07
2018-01-21T12:43:46.297Z,21.90
2018-01-21T12:46:14.545Z,24.57
2018-01-21T12:48:42.857Z,21.87
2018-01-21T12:51:11.179Z,35.50
2018-01-21T12:53:40.206Z,18.23
2018-01-21T12:56:08.448Z,20.37
2018-01-21T12:58:37.515Z,32.20
2018-01-21T13:01:07.386Z,19.53
2018-01-21T13:03:35.655Z,23.30
2018-01-21T13:06:03.922Z,33.17
2018-01-21T13:08:32.184Z,23.73
2018-01-21T13:11:02.219Z,20.10
2018-01-21T13:13:31.338Z,19.60
2018-01-21T13:15:59.590Z,19.27
2018-01-21T13:18:27.879Z,17.50
2018-01-21T13:20:56.127Z,22.73
2018-01-21T13:23:25.325Z,19.83
2018-01-21T13:25:53.618Z,15.50
2018-01-21T13:28:23.374Z,16.30
2018-01-21T13:30:51.611Z,18.87
2018-01-21T13:33:20.645Z,18.13
2018-01-21T13:35:48.938Z,28.67
2018-01-21T13:38:17.215Z,19.87
2018-01-21T13:40:46.711Z,16.40
2018-01-21T13:43:15.021Z,20.07
2018-01-21T13:45:43.291Z,17.53
2018-01-21T13:48:12.352Z,12.13
2018-01-21T13:50:40.675Z,13.07
2018-01-21T13:53:08.933Z,18.60
2018-01-21T13:55:37.176Z,14.33
2018-01-21T13:58:05.500Z,14.67
2018-01-21T14:00:35.275Z,23.77
2018-01-21T14:03:03.533Z,17.03
2018-01-21T14:05:31.857Z,21.77
2018-01-21T14:08:00.120Z,15.37
2018-01-21T14:10:28.403Z,15.00
2018-01-21T14:12:58.218Z,27.40
2018-01-21T14:15:26.511Z,18.50
2018-01-21T14:17:54.821Z,21.10
2018-01-21T14:20:23.947Z,24.67
2018-01-21T14:22:52.207Z,26.77
2018-01-21T14:25:20.446Z,37.97
2018-01-21T14:27:49.499Z,27.03
2018-01-21T14:30:17.790Z,17.50
2018-01-21T14:32:46.045Z,31.77
2018-01-21T14:35:14.714Z,27.20
2018-01-21T14:37:43.930Z,34.73
2018-01-21T14:40:12.500Z,26.00
2018-01-21T14:42:40.833Z,22.80
2018-01-21T14:45:10.614Z,21.43
2018-01-21T14:47:38.907Z,33.50
2018-01-21T14:50:07.189Z,40.00
2018-01-21T14:52:35.497Z,28.80
2018-01-21T14:55:03.793Z,37.27
2018-01-21T14:57:32.849Z,22.50
2018-01-21T15:00:01.113Z,16.70
2018-01-21T15:02:29.527Z,19.13
2018-01-21T15:04:57.809Z,21.30
2018-01-21T15:07:26.111Z,18.27
2018-01-21T15:09:54.369Z,14.30
2018-01-21T15:12:23.396Z,15.30
2018-01-21T15:14:51.678Z,13.30
2018-01-21T15:17:19.975Z,13.40
2018-01-21T15:19:48.208Z,16.70
2018-01-21T15:22:17.242Z,20.70
2018-01-21T15:24:45.532Z,16.27
2018-01-21T15:27:13.826Z,23.13
2018-01-21T15:29:42.076Z,15.80
2018-01-21T15:32:10.435Z,16.77
2018-01-21T15:34:38.687Z,17.67
2018-01-21T15:37:07.863Z,9.07
2018-01-21T15:39:36.119Z,6.57
2018-01-21T15:42:04.345Z,6.20
2018-01-21T15:44:32.760Z,13.27
2018-01-21T15:47:01.033Z,5.37
2018-01-21T15:49:29.264Z,10.17
2018-01-21T15:51:58.049Z,8.60
2018-01-21T15:54:26.303Z,17.63
2018-01-21T15:56:54.556Z,7.47
2018-01-21T15:59:22.818Z,11.10
2018-01-21T16:01:51.097Z,11.30
2018-01-21T16:04:19.366Z,9.83
2018-01-21T16:06:47.679Z,20.37
2018-01-21T16:09:15.957Z,50.17
2018-01-21T16:11:44.221Z,23.83
2018-01-21T16:14:12.533Z,12.00
2018-01-21T16:16:40.780Z,24.17
2018-01-21T16:19:09.059Z,11.07
2018-01-21T16:21:37.308Z,12.23
2018-01-21T16:24:05.619Z,20.10
2018-01-21T16:26:33.939Z,14.77
2018-01-21T16:29:03.180Z,17.90
2018-01-21T16:31:31.455Z,17.83
2018-01-21T16:34:00.386Z,15.77
2018-01-21T16:36:30.178Z,12.20
2018-01-21T16:39:00.164Z,25.13
2018-01-21T16:41:28.470Z,20.30
2018-01-21T16:43:57.557Z,18.70
2018-01-21T16:46:25.870Z,14.20
2018-01-21T16:48:54.170Z,22.93
2018-01-21T16:51:23.964Z,25.50
2018-01-21T16:53:52.264Z,16.33
2018-01-21T16:56:21.450Z,16.60
2018-01-21T16:58:49.730Z,21.10
2018-01-21T17:01:18.049Z,25.17
2018-01-21T17:03:47.121Z,29.63
2018-01-21T17:06:16.165Z,19.00
2018-01-21T17:08:44.438Z,25.30
2018-01-21T17:11:12.768Z,21.57
2018-01-21T17:13:41.032Z,25.73
2018-01-21T17:16:09.315Z,23.80
2018-01-21T17:18:38.406Z,25.17
2018-01-21T17:21:06.717Z,25.13
2018-01-21T17:23:34.974Z,43.30
2018-01-21T17:26:04.022Z,26.20
2018-01-21T17:28:32.313Z,29.87
2018-01-21T17:31:00.626Z,35.63
2018-01-21T17:33:28.919Z,29.00
2018-01-21T17:35:57.933Z,32.90
2018-01-21T17:38:26.283Z,21.57
2018-01-21T17:40:55.346Z,31.97
2018-01-21T17:43:24.435Z,23.73
2018-01-21T17:45:52.714Z,34.10
2018-01-21T17:48:21.003Z,44.30
2018-01-21T17:50:49.302Z,35.20
2018-01-21T17:53:17.579Z,37.67
2018-01-21T17:55:47.604Z,38.47
2018-01-21T17:58:16.639Z,32.97
2018-01-21T18:00:45.390Z,38.17
2018-01-21T18:03:13.673Z,35.07
2018-01-21T18:05:43.444Z,37.90
2018-01-21T18:08:11.824Z,30.73
2018-01-21T18:10:40.076Z,26.73
2018-01-21T18:13:08.348Z,26.57
2018-01-21T18:15:36.612Z,52.40
2018-01-21T18:18:05.685Z,30.70
2018-01-21T18:20:34.814Z,33.93
2018-01-21T18:23:03.147Z,35.10
2018-01-21T18:25:31.463Z,37.30
2018-01-21T18:28:00.588Z,35.13
2018-01-21T18:30:30.389Z,36.47
2018-01-21T18:32:58.715Z,53.03
2018-01-21T18:35:28.188Z,31.83
2018-01-21T18:37:56.498Z,31.13
2018-01-21T18:40:25.592Z,36.80
2018-01-21T18:42:54.797Z,37.47
2018-01-21T18:45:23.062Z,45.23
2018-01-21T18:47:51.350Z,35.13
2018-01-21T18:50:20.421Z,38.97
2018-01-21T18:52:48.880Z,40.80
2018-01-21T18:55:17.198Z,32.00
2018-01-21T18:57:45.456Z,50.87
2018-01-21T19:00:13.741Z,41.77
2018-01-21T19:02:42.918Z,33.97
2018-01-21T19:05:11.290Z,34.50
2018-01-21T19:07:39.735Z,41.53
2018-01-21T19:10:08.104Z,32.33
2018-01-21T19:12:36.627Z,42.33
2018-01-21T19:15:05.642Z,39.33
2018-01-21T19:17:33.934Z,47.17
2018-01-21T19:20:03.006Z,41.23
2018-01-21T19:22:31.348Z,49.73
2018-01-21T19:24:59.648Z,39.40
2018-01-21T19:27:27.947Z,45.30
2018-01-21T19:29:57.557Z,40.60
2018-01-21T19:32:25.892Z,44.47
2018-01-21T19:34:54.876Z,44.70
2018-01-21T19:37:23.987Z,55.20
2018-01-21T19:40:02.978Z,101.03
2018-01-21T19:45:39.246Z,55.70
2018-01-21T19:48:10.935Z,55.07
2018-01-21T19:50:39.936Z,53.67
2018-01-21T19:53:09.441Z,54.67
2018-01-21T19:55:39.455Z,71.53
2018-01-21T19:58:08.518Z,52.50
2018-01-21T20:00:39.653Z,60.53
2018-01-21T20:03:08.860Z,47.73
2018-01-21T20:05:38.210Z,50.87
2018-01-21T20:08:06.817Z,53.33
2018-01-21T20:10:36.350Z,41.10
2018-01-21T20:13:15.375Z,32.97
2018-01-21T20:15:43.722Z,38.33
2018-01-21T20:18:12.811Z,34.87
2018-01-21T20:20:41.854Z,38.07
2018-01-21T20:23:10.794Z,33.90
2018-01-21T20:25:39.092Z,41.87
2018-01-21T20:28:09.702Z,42.90
2018-01-21T20:30:38.695Z,44.63
2018-01-21T20:33:08.210Z,52.83
2018-01-21T20:35:38.659Z,46.40
2018-01-21T20:38:07.363Z,48.90
2018-01-21T20:40:35.705Z,53.83
2018-01-21T20:43:05.074Z,59.80
2018-01-21T20:45:33.399Z,63.00
2018-01-21T20:48:01.852Z,51.47
2018-01-21T20:50:30.150Z,59.83
2018-01-21T20:52:58.463Z,53.37
2018-01-21T20:55:28.333Z,55.17
2018-01-21T20:57:57.493Z,45.93
2018-01-21T21:00:25.770Z,39.70
2018-01-21T21:02:54.673Z,35.60
2018-01-21T21:05:23.633Z,32.50
2018-01-21T21:07:51.906Z,44.53
2018-01-21T21:10:20.186Z,35.03
2018-01-21T21:12:48.515Z,23.30
2018-01-21T21:15:16.767Z,28.90
2018-01-21T21:17:46.601Z,29.30
2018-01-21T21:20:14.883Z,33.13
2018-01-21T21:22:43.165Z,19.27
2018-01-21T21:25:11.448Z,20.80
2018-01-21T21:27:39.755Z,25.93
2018-01-21T21:30:08.799Z,27.80
2018-01-21T21:32:37.114Z,16.70
2018-01-21T21:35:06.143Z,23.03
2018-01-21T21:37:34.425Z,25.20
2018-01-21T21:40:02.727Z,26.67
2018-01-21T21:42:31.285Z,26.17
2018-01-21T21:44:59.637Z,37.47
2018-01-21T21:47:28.708Z,29.73
2018-01-21T21:49:57.046Z,20.70
2018-01-21T21:52:25.357Z,20.10
2018-01-21T21:54:53.623Z,11.03
2018-01-21T21:57:21.915Z,13.13
2018-01-21T21:59:50.162Z,13.43
2018-01-21T22:02:18.530Z,11.83
2018-01-21T22:04:46.765Z,12.27
2018-01-21T22:07:15.824Z,14.60
2018-01-21T22:09:44.119Z,11.30
2018-01-21T22:12:13.673Z,15.43
2018-01-21T22:14:42.702Z,16.73
2018-01-21T22:17:10.979Z,12.50
2018-01-21T22:19:39.229Z,8.60
2018-01-21T22:22:08.209Z,11.97
2018-01-21T22:24:36.466Z,22.43
2018-01-21T22:27:05.455Z,8.53
2018-01-21T22:29:34.486Z,7.40
2018-01-21T22:32:02.721Z,10.53
2018-01-21T22:34:32.482Z,10.00
2018-01-21T22:37:00.747Z,13.40
2018-01-21T22:39:29.733Z,6.27
2018-01-21T22:41:58.762Z,7.37
2018-01-21T22:44:26.986Z,12.03
2018-01-21T22:46:55.505Z,6.80
2018-01-21T22:49:23.752Z,6.77
2018-01-21T22:51:52.765Z,10.37
2018-01-21T22:54:21.026Z,13.10
2018-01-21T22:56:49.279Z,10.63
2018-01-21T22:59:17.499Z,7.20
2018-01-21T23:01:45.745Z,6.23
2018-01-21T23:04:14.756Z,4.70
2018-01-21T23:06:43.786Z,11.87
2018-01-21T23:09:12.026Z,10.37
2018-01-21T23:11:41.049Z,15.30
2018-01-21T23:14:09.282Z,9.63
2018-01-21T23:16:38.313Z,14.13
2018-01-21T23:19:07.316Z,14.00
2018-01-21T23:21:35.562Z,3.40
2018-01-21T23:24:03.822Z,8.53
2018-01-21T23:26:33.559Z,9.50
2018-01-21T23:29:01.864Z,12.20
2018-01-21T23:31:30.079Z,6.70
2018-01-21T23:33:58.365Z,10.63
2018-01-21T23:36:26.613Z,8.57
2018-01-21T23:38:54.927Z,11.13
2018-01-21T23:41:23.147Z,5.20
2018-01-21T23:43:51.414Z,12.30
2018-01-21T23:46:19.680Z,8.97
2018-01-21T23:48:47.970Z,19.33
2018-01-21T23:51:16.985Z,6.80
2018-01-21T23:53:45.222Z,8.73
2018-01-21T23:56:14.232Z,12.30
2018-01-21T23:58:42.493Z,6.40
